sensor_id;sensor_type;location;lat;lon;timestamp;pressure;altitude;pressure_sealevel;temperature
49785;BMP280;35679;38.732;-121.358;2023-06-26T00:01:31;101047.31;;;25.36
49785;BMP280;35679;38.732;-121.358;2023-06-26T00:04:20;101041.09;;;25.35
49785;BMP280;35679;38.732;-121.358;2023-06-26T00:07:10;101041.41;;;25.39
49785;BMP280;35679;38.732;-121.358;2023-06-26T00:10:01;101028.69;;;25.39
49785;BMP280;35679;38.732;-121.358;2023-06-26T00:12:51;101043.34;;;25.43
49785;BMP280;35679;38.732;-121.358;2023-06-26T00:15:41;101034.97;;;25.45
49785;BMP280;35679;38.732;-121.358;2023-06-26T00:18:30;101028.75;;;25.44
49785;BMP280;35679;38.732;-121.358;2023-06-26T00:21:20;101028.50;;;25.46
49785;BMP280;35679;38.732;-121.358;2023-06-26T00:24:09;101029.31;;;25.46
49785;BMP280;35679;38.732;-121.358;2023-06-26T00:26:58;101030.13;;;25.47
49785;BMP280;35679;38.732;-121.358;2023-06-26T00:29:48;101023.66;;;25.48
49785;BMP280;35679;38.732;-121.358;2023-06-26T00:32:38;101013.69;;;25.48
49785;BMP280;35679;38.732;-121.358;2023-06-26T00:35:27;101011.50;;;25.50
49785;BMP280;35679;38.732;-121.358;2023-06-26T00:38:17;101017.22;;;25.54
49785;BMP280;35679;38.732;-121.358;2023-06-26T00:41:06;101024.53;;;25.53
49785;BMP280;35679;38.732;-121.358;2023-06-26T00:44:01;101012.63;;;25.54
49785;BMP280;35679;38.732;-121.358;2023-06-26T00:46:50;101021.28;;;25.56
49785;BMP280;35679;38.732;-121.358;2023-06-26T00:49:41;101016.47;;;25.58
49785;BMP280;35679;38.732;-121.358;2023-06-26T00:52:31;101012.13;;;25.57
49785;BMP280;35679;38.732;-121.358;2023-06-26T00:55:21;101012.69;;;25.90
49785;BMP280;35679;38.732;-121.358;2023-06-26T00:58:11;101017.16;;;26.11
49785;BMP280;35679;38.732;-121.358;2023-06-26T01:01:00;101018.34;;;26.30
49785;BMP280;35679;38.732;-121.358;2023-06-26T01:03:52;101024.13;;;26.44
49785;BMP280;35679;38.732;-121.358;2023-06-26T01:06:46;101013.66;;;26.57
49785;BMP280;35679;38.732;-121.358;2023-06-26T01:09:41;101012.34;;;26.64
49785;BMP280;35679;38.732;-121.358;2023-06-26T01:12:37;101009.63;;;26.69
49785;BMP280;35679;38.732;-121.358;2023-06-26T01:15:28;101010.72;;;26.73
49785;BMP280;35679;38.732;-121.358;2023-06-26T01:18:17;101005.91;;;26.80
49785;BMP280;35679;38.732;-121.358;2023-06-26T01:21:07;101017.00;;;26.84
49785;BMP280;35679;38.732;-121.358;2023-06-26T01:24:05;101006.47;;;26.87
49785;BMP280;35679;38.732;-121.358;2023-06-26T01:26:59;101010.56;;;26.95
49785;BMP280;35679;38.732;-121.358;2023-06-26T01:29:50;101013.31;;;27.00
49785;BMP280;35679;38.732;-121.358;2023-06-26T01:32:41;101010.31;;;27.01
49785;BMP280;35679;38.732;-121.358;2023-06-26T01:35:31;101012.50;;;27.04
49785;BMP280;35679;38.732;-121.358;2023-06-26T01:38:23;101014.94;;;27.06
49785;BMP280;35679;38.732;-121.358;2023-06-26T01:41:12;101022.53;;;27.09
49785;BMP280;35679;38.732;-121.358;2023-06-26T01:44:15;101011.41;;;27.10
49785;BMP280;35679;38.732;-121.358;2023-06-26T01:47:06;101006.56;;;27.12
49785;BMP280;35679;38.732;-121.358;2023-06-26T01:50:07;101012.00;;;27.17
49785;BMP280;35679;38.732;-121.358;2023-06-26T01:53:11;101003.59;;;27.18
49785;BMP280;35679;38.732;-121.358;2023-06-26T01:56:08;101006.84;;;27.20
49785;BMP280;35679;38.732;-121.358;2023-06-26T01:59:03;100999.53;;;27.21
49785;BMP280;35679;38.732;-121.358;2023-06-26T02:01:54;101005.22;;;27.19
49785;BMP280;35679;38.732;-121.358;2023-06-26T02:04:44;100994.09;;;27.21
49785;BMP280;35679;38.732;-121.358;2023-06-26T02:07:37;100993.59;;;27.24
49785;BMP280;35679;38.732;-121.358;2023-06-26T02:10:26;100995.47;;;27.23
49785;BMP280;35679;38.732;-121.358;2023-06-26T02:13:16;101000.38;;;27.26
49785;BMP280;35679;38.732;-121.358;2023-06-26T02:16:06;100995.19;;;27.25
49785;BMP280;35679;38.732;-121.358;2023-06-26T02:18:55;101000.59;;;27.25
49785;BMP280;35679;38.732;-121.358;2023-06-26T02:21:47;101001.16;;;27.32
49785;BMP280;35679;38.732;-121.358;2023-06-26T02:24:37;101003.88;;;27.27
49785;BMP280;35679;38.732;-121.358;2023-06-26T02:27:26;101006.31;;;27.28
49785;BMP280;35679;38.732;-121.358;2023-06-26T02:30:16;101001.44;;;27.30
49785;BMP280;35679;38.732;-121.358;2023-06-26T02:33:05;100999.53;;;27.31
49785;BMP280;35679;38.732;-121.358;2023-06-26T02:35:55;101002.25;;;27.31
49785;BMP280;35679;38.732;-121.358;2023-06-26T02:38:44;101000.38;;;27.26
49785;BMP280;35679;38.732;-121.358;2023-06-26T02:41:33;101008.22;;;27.28
49785;BMP280;35679;38.732;-121.358;2023-06-26T02:44:24;101004.44;;;27.29
49785;BMP280;35679;38.732;-121.358;2023-06-26T02:47:14;100999.53;;;27.31
49785;BMP280;35679;38.732;-121.358;2023-06-26T02:50:06;101003.06;;;27.26
49785;BMP280;35679;38.732;-121.358;2023-06-26T02:53:15;100994.94;;;27.26
49785;BMP280;35679;38.732;-121.358;2023-06-26T02:56:06;100991.97;;;27.28
49785;BMP280;35679;38.732;-121.358;2023-06-26T02:58:56;100986.25;;;27.24
49785;BMP280;35679;38.732;-121.358;2023-06-26T03:01:47;100999.53;;;27.26
49785;BMP280;35679;38.732;-121.358;2023-06-26T03:04:37;100998.44;;;27.27
49785;BMP280;35679;38.732;-121.358;2023-06-26T03:07:30;101007.13;;;27.24
49785;BMP280;35679;38.732;-121.358;2023-06-26T03:10:20;101000.34;;;27.21
49785;BMP280;35679;38.732;-121.358;2023-06-26T03:13:10;101000.59;;;27.20
49785;BMP280;35679;38.732;-121.358;2023-06-26T03:16:00;100999.50;;;27.16
49785;BMP280;35679;38.732;-121.358;2023-06-26T03:18:49;101001.44;;;27.16
49785;BMP280;35679;38.732;-121.358;2023-06-26T03:21:39;101008.19;;;27.13
49785;BMP280;35679;38.732;-121.358;2023-06-26T03:24:28;101012.53;;;27.09
49785;BMP280;35679;38.732;-121.358;2023-06-26T03:27:18;101019.28;;;27.07
49785;BMP280;35679;38.732;-121.358;2023-06-26T03:30:09;101021.72;;;27.03
49785;BMP280;35679;38.732;-121.358;2023-06-26T03:33:01;101033.63;;;27.02
49785;BMP280;35679;38.732;-121.358;2023-06-26T03:35:51;101035.50;;;27.02
49785;BMP280;35679;38.732;-121.358;2023-06-26T03:38:41;101036.03;;;26.99
49785;BMP280;35679;38.732;-121.358;2023-06-26T03:41:30;101030.31;;;26.95
49785;BMP280;35679;38.732;-121.358;2023-06-26T03:44:22;101030.28;;;26.90
49785;BMP280;35679;38.732;-121.358;2023-06-26T03:47:11;101036.53;;;26.86
49785;BMP280;35679;38.732;-121.358;2023-06-26T03:50:01;101042.75;;;26.86
49785;BMP280;35679;38.732;-121.358;2023-06-26T03:52:50;101039.47;;;26.84
49785;BMP280;35679;38.732;-121.358;2023-06-26T03:55:40;101032.69;;;26.77
49785;BMP280;35679;38.732;-121.358;2023-06-26T03:58:29;101042.72;;;26.76
49785;BMP280;35679;38.732;-121.358;2023-06-26T04:01:19;101043.22;;;26.73
49785;BMP280;35679;38.732;-121.358;2023-06-26T04:04:10;101049.97;;;26.71
49785;BMP280;35679;38.732;-121.358;2023-06-26T04:07:00;101047.53;;;26.69
49785;BMP280;35679;38.732;-121.358;2023-06-26T04:09:49;101051.88;;;26.65
49785;BMP280;35679;38.732;-121.358;2023-06-26T04:12:39;101059.19;;;26.65
49785;BMP280;35679;38.732;-121.358;2023-06-26T04:15:28;101062.66;;;26.60
49785;BMP280;35679;38.732;-121.358;2023-06-26T04:18:17;101068.63;;;26.57
49785;BMP280;35679;38.732;-121.358;2023-06-26T04:21:12;101066.41;;;26.49
49785;BMP280;35679;38.732;-121.358;2023-06-26T04:24:02;101073.44;;;26.50
49785;BMP280;35679;38.732;-121.358;2023-06-26T04:26:51;101085.59;;;26.48
49785;BMP280;35679;38.732;-121.358;2023-06-26T04:29:41;101089.34;;;26.42
49785;BMP280;35679;38.732;-121.358;2023-06-26T04:32:30;101096.13;;;26.45
49785;BMP280;35679;38.732;-121.358;2023-06-26T04:35:20;101103.94;;;26.41
49785;BMP280;35679;38.732;-121.358;2023-06-26T04:38:10;101107.47;;;26.37
49785;BMP280;35679;38.732;-121.358;2023-06-26T04:41:01;101102.28;;;26.35
49785;BMP280;35679;38.732;-121.358;2023-06-26T04:43:50;101089.50;;;26.26
49785;BMP280;35679;38.732;-121.358;2023-06-26T04:46:40;101096.25;;;26.23
49785;BMP280;35679;38.732;-121.358;2023-06-26T04:49:32;101095.41;;;26.23
49785;BMP280;35679;38.732;-121.358;2023-06-26T04:52:22;101100.81;;;26.23
49785;BMP280;35679;38.732;-121.358;2023-06-26T04:55:12;101106.19;;;26.18
49785;BMP280;35679;38.732;-121.358;2023-06-26T04:58:01;101098.88;;;26.13
49785;BMP280;35679;38.732;-121.358;2023-06-26T05:00:51;101111.03;;;26.11
49785;BMP280;35679;38.732;-121.358;2023-06-26T05:03:41;101112.59;;;26.07
49785;BMP280;35679;38.732;-121.358;2023-06-26T05:06:30;101108.25;;;26.06
49785;BMP280;35679;38.732;-121.358;2023-06-26T05:09:20;101114.75;;;26.05
49785;BMP280;35679;38.732;-121.358;2023-06-26T05:12:09;101120.41;;;26.03
49785;BMP280;35679;38.732;-121.358;2023-06-26T05:14:59;101116.38;;;26.06
49785;BMP280;35679;38.732;-121.358;2023-06-26T05:17:48;101113.09;;;25.99
49785;BMP280;35679;38.732;-121.358;2023-06-26T05:20:38;101118.16;;;25.90
49785;BMP280;35679;38.732;-121.358;2023-06-26T05:23:32;101114.34;;;25.86
49785;BMP280;35679;38.732;-121.358;2023-06-26T05:26:22;101116.78;;;25.88
49785;BMP280;35679;38.732;-121.358;2023-06-26T05:29:12;101113.97;;;25.78
49785;BMP280;35679;38.732;-121.358;2023-06-26T05:32:01;101130.19;;;25.78
49785;BMP280;35679;38.732;-121.358;2023-06-26T05:34:51;101126.94;;;25.76
49785;BMP280;35679;38.732;-121.358;2023-06-26T05:37:48;101125.53;;;25.74
49785;BMP280;35679;38.732;-121.358;2023-06-26T05:40:38;101134.16;;;25.71
49785;BMP280;35679;38.732;-121.358;2023-06-26T05:43:29;101138.19;;;25.68
49785;BMP280;35679;38.732;-121.358;2023-06-26T05:46:18;101143.00;;;25.66
49785;BMP280;35679;38.732;-121.358;2023-06-26T05:49:08;101140.56;;;25.65
49785;BMP280;35679;38.732;-121.358;2023-06-26T05:51:59;101143.78;;;25.62
49785;BMP280;35679;38.732;-121.358;2023-06-26T05:54:49;101142.47;;;25.64
49785;BMP280;35679;38.732;-121.358;2023-06-26T05:57:40;101142.97;;;25.61
49785;BMP280;35679;38.732;-121.358;2023-06-26T06:00:30;101135.59;;;25.57
49785;BMP280;35679;38.732;-121.358;2023-06-26T06:03:19;101145.03;;;25.54
49785;BMP280;35679;38.732;-121.358;2023-06-26T06:06:09;101134.50;;;25.53
49785;BMP280;35679;38.732;-121.358;2023-06-26T06:08:58;101139.53;;;25.44
49785;BMP280;35679;38.732;-121.358;2023-06-26T06:11:48;101139.25;;;25.41
49785;BMP280;35679;38.732;-121.358;2023-06-26T06:14:37;101145.13;;;25.38
49785;BMP280;35679;38.732;-121.358;2023-06-26T06:17:27;101136.44;;;25.36
49785;BMP280;35679;38.732;-121.358;2023-06-26T06:20:17;101144.81;;;25.34
49785;BMP280;35679;38.732;-121.358;2023-06-26T06:23:10;101144.22;;;25.27
49785;BMP280;35679;38.732;-121.358;2023-06-26T06:26:00;101150.09;;;25.24
49785;BMP280;35679;38.732;-121.358;2023-06-26T06:28:49;101153.06;;;25.23
49785;BMP280;35679;38.732;-121.358;2023-06-26T06:31:39;101145.72;;;25.18
49785;BMP280;35679;38.732;-121.358;2023-06-26T06:34:28;101149.72;;;25.16
49785;BMP280;35679;38.732;-121.358;2023-06-26T06:37:18;101143.19;;;25.12
49785;BMP280;35679;38.732;-121.358;2023-06-26T06:40:09;101152.63;;;25.10
49785;BMP280;35679;38.732;-121.358;2023-06-26T06:42:59;101164.38;;;25.04
49785;BMP280;35679;38.732;-121.358;2023-06-26T06:45:48;101157.94;;;25.05
49785;BMP280;35679;38.732;-121.358;2023-06-26T06:48:37;101158.44;;;25.02
49785;BMP280;35679;38.732;-121.358;2023-06-26T06:51:27;101160.81;;;24.98
49785;BMP280;35679;38.732;-121.358;2023-06-26T06:54:16;101158.84;;;24.94
49785;BMP280;35679;38.732;-121.358;2023-06-26T06:57:06;101160.75;;;24.93
49785;BMP280;35679;38.732;-121.358;2023-06-26T06:59:56;101162.56;;;24.88
49785;BMP280;35679;38.732;-121.358;2023-06-26T07:02:46;101155.50;;;24.87
49785;BMP280;35679;38.732;-121.358;2023-06-26T07:05:36;101148.72;;;24.84
49785;BMP280;35679;38.732;-121.358;2023-06-26T07:08:25;101150.03;;;24.82
49785;BMP280;35679;38.732;-121.358;2023-06-26T07:11:14;101148.66;;;24.79
49785;BMP280;35679;38.732;-121.358;2023-06-26T07:14:04;101148.38;;;24.76
49785;BMP280;35679;38.732;-121.358;2023-06-26T07:16:53;101145.34;;;24.72
49785;BMP280;35679;38.732;-121.358;2023-06-26T07:19:43;101138.56;;;24.70
49785;BMP280;35679;38.732;-121.358;2023-06-26T07:22:32;101138.78;;;24.68
49785;BMP280;35679;38.732;-121.358;2023-06-26T07:25:21;101143.88;;;24.65
49785;BMP280;35679;38.732;-121.358;2023-06-26T07:28:12;101152.47;;;24.62
49785;BMP280;35679;38.732;-121.358;2023-06-26T07:31:01;101154.63;;;24.60
49785;BMP280;35679;38.732;-121.358;2023-06-26T07:33:51;101147.00;;;24.57
49785;BMP280;35679;38.732;-121.358;2023-06-26T07:36:40;101153.69;;;24.54
49785;BMP280;35679;38.732;-121.358;2023-06-26T07:39:29;101150.19;;;24.54
49785;BMP280;35679;38.732;-121.358;2023-06-26T07:42:19;101152.56;;;24.50
49785;BMP280;35679;38.732;-121.358;2023-06-26T07:45:09;101149.53;;;24.47
49785;BMP280;35679;38.732;-121.358;2023-06-26T07:48:00;101151.91;;;24.60
49785;BMP280;35679;38.732;-121.358;2023-06-26T07:50:50;101146.44;;;24.55
49785;BMP280;35679;38.732;-121.358;2023-06-26T07:53:41;101140.72;;;24.51
49785;BMP280;35679;38.732;-121.358;2023-06-26T07:56:30;101151.44;;;24.47
49785;BMP280;35679;38.732;-121.358;2023-06-26T07:59:20;101141.25;;;24.37
49785;BMP280;35679;38.732;-121.358;2023-06-26T08:02:11;101155.81;;;24.36
49785;BMP280;35679;38.732;-121.358;2023-06-26T08:05:00;101158.50;;;24.36
49785;BMP280;35679;38.732;-121.358;2023-06-26T08:07:50;101169.81;;;24.33
49785;BMP280;35679;38.732;-121.358;2023-06-26T08:10:40;101178.38;;;24.30
49785;BMP280;35679;38.732;-121.358;2023-06-26T08:13:29;101173.47;;;24.27
49785;BMP280;35679;38.732;-121.358;2023-06-26T08:16:18;101164.81;;;24.25
49785;BMP280;35679;38.732;-121.358;2023-06-26T08:19:08;101160.97;;;24.21
49785;BMP280;35679;38.732;-121.358;2023-06-26T08:21:57;101165.78;;;24.19
49785;BMP280;35679;38.732;-121.358;2023-06-26T08:24:47;101166.28;;;24.16
49785;BMP280;35679;38.732;-121.358;2023-06-26T08:27:36;101158.69;;;24.13
49785;BMP280;35679;38.732;-121.358;2023-06-26T08:30:26;101158.09;;;24.11
49785;BMP280;35679;38.732;-121.358;2023-06-26T08:33:16;101151.56;;;24.07
49785;BMP280;35679;38.732;-121.358;2023-06-26T08:36:06;101148.53;;;24.04
49785;BMP280;35679;38.732;-121.358;2023-06-26T08:38:56;101153.34;;;24.02
49785;BMP280;35679;38.732;-121.358;2023-06-26T08:41:45;101140.03;;;23.95
49785;BMP280;35679;38.732;-121.358;2023-06-26T08:44:35;101135.94;;;23.93
49785;BMP280;35679;38.732;-121.358;2023-06-26T08:47:37;101136.19;;;23.91
49785;BMP280;35679;38.732;-121.358;2023-06-26T08:50:30;101139.16;;;23.90
49785;BMP280;35679;38.732;-121.358;2023-06-26T08:53:47;101131.28;;;23.88
49785;BMP280;35679;38.732;-121.358;2023-06-26T08:56:44;101127.19;;;23.86
49785;BMP280;35679;38.732;-121.358;2023-06-26T08:59:35;101129.06;;;23.85
49785;BMP280;35679;38.732;-121.358;2023-06-26T09:02:25;101125.78;;;23.83
49785;BMP280;35679;38.732;-121.358;2023-06-26T09:05:15;101134.38;;;23.80
49785;BMP280;35679;38.732;-121.358;2023-06-26T09:08:06;101133.00;;;23.78
49785;BMP280;35679;38.732;-121.358;2023-06-26T09:10:56;101132.06;;;23.73
49785;BMP280;35679;38.732;-121.358;2023-06-26T09:13:45;101131.25;;;23.72
49785;BMP280;35679;38.732;-121.358;2023-06-26T09:16:40;101126.13;;;23.71
49785;BMP280;35679;38.732;-121.358;2023-06-26T09:19:31;101126.81;;;23.66
49785;BMP280;35679;38.732;-121.358;2023-06-26T09:22:23;101116.53;;;23.63
49785;BMP280;35679;38.732;-121.358;2023-06-26T09:25:13;101112.44;;;23.61
49785;BMP280;35679;38.732;-121.358;2023-06-26T09:28:03;101115.38;;;23.59
49785;BMP280;35679;38.732;-121.358;2023-06-26T09:30:52;101114.53;;;23.59
49785;BMP280;35679;38.732;-121.358;2023-06-26T09:33:42;101110.22;;;23.58
49785;BMP280;35679;38.732;-121.358;2023-06-26T09:36:37;101099.94;;;23.55
49785;BMP280;35679;38.732;-121.358;2023-06-26T09:39:28;101096.09;;;23.51
49785;BMP280;35679;38.732;-121.358;2023-06-26T09:42:19;101095.75;;;23.47
49785;BMP280;35679;38.732;-121.358;2023-06-26T09:45:18;101096.56;;;23.48
49785;BMP280;35679;38.732;-121.358;2023-06-26T09:48:08;101099.50;;;23.46
49785;BMP280;35679;38.732;-121.358;2023-06-26T09:51:00;101090.03;;;23.44
49785;BMP280;35679;38.732;-121.358;2023-06-26T09:54:01;101083.50;;;23.40
49785;BMP280;35679;38.732;-121.358;2023-06-26T09:56:51;101082.91;;;23.38
49785;BMP280;35679;38.732;-121.358;2023-06-26T09:59:43;101080.72;;;23.35
49785;BMP280;35679;38.732;-121.358;2023-06-26T10:02:35;101086.56;;;23.32
49785;BMP280;35679;38.732;-121.358;2023-06-26T10:05:25;101098.38;;;23.31
49785;BMP280;35679;38.732;-121.358;2023-06-26T10:08:15;101099.47;;;23.30
49785;BMP280;35679;38.732;-121.358;2023-06-26T10:11:08;101094.53;;;23.27
49785;BMP280;35679;38.732;-121.358;2023-06-26T10:14:03;101101.22;;;23.24
49785;BMP280;35679;38.732;-121.358;2023-06-26T10:17:09;101104.41;;;23.21
49785;BMP280;35679;38.732;-121.358;2023-06-26T10:20:02;101104.06;;;23.18
49785;BMP280;35679;38.732;-121.358;2023-06-26T10:22:55;101101.03;;;23.14
49785;BMP280;35679;38.732;-121.358;2023-06-26T10:25:48;101100.22;;;23.14
49785;BMP280;35679;38.732;-121.358;2023-06-26T10:28:38;101092.59;;;23.11
49785;BMP280;35679;38.732;-121.358;2023-06-26T10:31:31;101098.22;;;23.10
49785;BMP280;35679;38.732;-121.358;2023-06-26T10:34:22;101098.72;;;23.07
49785;BMP280;35679;38.732;-121.358;2023-06-26T10:37:12;101087.97;;;23.07
49785;BMP280;35679;38.732;-121.358;2023-06-26T10:40:02;101085.47;;;23.05
49785;BMP280;35679;38.732;-121.358;2023-06-26T10:42:51;101082.22;;;23.03
49785;BMP280;35679;38.732;-121.358;2023-06-26T10:45:54;101079.16;;;23.00
49785;BMP280;35679;38.732;-121.358;2023-06-26T10:48:57;101072.13;;;22.99
49785;BMP280;35679;38.732;-121.358;2023-06-26T10:51:49;101086.09;;;22.96
49785;BMP280;35679;38.732;-121.358;2023-06-26T10:54:39;101076.13;;;22.96
49785;BMP280;35679;38.732;-121.358;2023-06-26T10:57:28;101082.00;;;22.93
49785;BMP280;35679;38.732;-121.358;2023-06-26T11:00:18;101084.09;;;22.91
49785;BMP280;35679;38.732;-121.358;2023-06-26T11:03:23;101078.97;;;22.90
49785;BMP280;35679;38.732;-121.358;2023-06-26T11:06:14;101085.38;;;22.89
49785;BMP280;35679;38.732;-121.358;2023-06-26T11:14:53;101087.63;;;22.80
49785;BMP280;35679;38.732;-121.358;2023-06-26T11:17:44;101086.00;;;22.79
49785;BMP280;35679;38.732;-121.358;2023-06-26T11:20:33;101088.91;;;22.78
49785;BMP280;35679;38.732;-121.358;2023-06-26T11:23:24;101087.53;;;22.75
49785;BMP280;35679;38.732;-121.358;2023-06-26T11:26:21;101098.63;;;22.79
49785;BMP280;35679;38.732;-121.358;2023-06-26T11:29:11;101106.34;;;22.75
49785;BMP280;35679;38.732;-121.358;2023-06-26T11:32:02;101104.16;;;22.72
49785;BMP280;35679;38.732;-121.358;2023-06-26T11:34:54;101099.81;;;22.71
49785;BMP280;35679;38.732;-121.358;2023-06-26T11:37:44;101103.22;;;22.67
49785;BMP280;35679;38.732;-121.358;2023-06-26T11:40:34;101110.47;;;22.66
49785;BMP280;35679;38.732;-121.358;2023-06-26T11:43:24;101107.19;;;22.64
49785;BMP280;35679;38.732;-121.358;2023-06-26T11:46:16;101117.38;;;22.62
49785;BMP280;35679;38.732;-121.358;2023-06-26T11:49:07;101119.47;;;22.60
49785;BMP280;35679;38.732;-121.358;2023-06-26T11:51:57;101115.75;;;22.61
49785;BMP280;35679;38.732;-121.358;2023-06-26T11:54:46;101110.00;;;22.58
49785;BMP280;35679;38.732;-121.358;2023-06-26T11:57:37;101117.28;;;22.57
49785;BMP280;35679;38.732;-121.358;2023-06-26T12:00:27;101112.34;;;22.54
49785;BMP280;35679;38.732;-121.358;2023-06-26T12:03:17;101105.31;;;22.53
49785;BMP280;35679;38.732;-121.358;2023-06-26T12:06:06;101110.13;;;22.51
49785;BMP280;35679;38.732;-121.358;2023-06-26T12:08:57;101112.22;;;22.49
49785;BMP280;35679;38.732;-121.358;2023-06-26T12:11:50;101113.53;;;22.47
49785;BMP280;35679;38.732;-121.358;2023-06-26T12:14:41;101111.06;;;22.45
49785;BMP280;35679;38.732;-121.358;2023-06-26T12:17:30;101101.59;;;22.43
49785;BMP280;35679;38.732;-121.358;2023-06-26T12:20:24;101104.53;;;22.42
49785;BMP280;35679;38.732;-121.358;2023-06-26T12:23:14;101114.44;;;22.41
49785;BMP280;35679;38.732;-121.358;2023-06-26T12:26:20;101113.66;;;22.41
49785;BMP280;35679;38.732;-121.358;2023-06-26T12:29:14;101105.81;;;22.39
49785;BMP280;35679;38.732;-121.358;2023-06-26T12:32:08;101118.44;;;22.39
49785;BMP280;35679;38.732;-121.358;2023-06-26T12:34:58;101118.91;;;22.36
49785;BMP280;35679;38.732;-121.358;2023-06-26T12:37:47;101110.63;;;21.85
49785;BMP280;35679;38.732;-121.358;2023-06-26T12:40:44;101124.53;;;21.06
49785;BMP280;35679;38.732;-121.358;2023-06-26T12:43:38;101120.22;;;20.87
49785;BMP280;35679;38.732;-121.358;2023-06-26T12:46:34;101115.91;;;20.61
49785;BMP280;35679;38.732;-121.358;2023-06-26T12:49:34;101117.16;;;20.41
49785;BMP280;35679;38.732;-121.358;2023-06-26T12:52:24;101108.06;;;20.24
49785;BMP280;35679;38.732;-121.358;2023-06-26T12:55:13;101114.09;;;19.89
49785;BMP280;35679;38.732;-121.358;2023-06-26T12:58:04;101116.97;;;19.87
49785;BMP280;35679;38.732;-121.358;2023-06-26T13:00:54;101113.75;;;19.79
49785;BMP280;35679;38.732;-121.358;2023-06-26T13:03:46;101120.81;;;19.67
49785;BMP280;35679;38.732;-121.358;2023-06-26T13:06:36;101119.84;;;19.55
49785;BMP280;35679;38.732;-121.358;2023-06-26T13:09:26;101127.75;;;19.44
49785;BMP280;35679;38.732;-121.358;2023-06-26T13:12:16;101132.09;;;19.45
49785;BMP280;35679;38.732;-121.358;2023-06-26T13:15:06;101137.31;;;19.27
49785;BMP280;35679;38.732;-121.358;2023-06-26T13:17:56;101137.75;;;19.24
49785;BMP280;35679;38.732;-121.358;2023-06-26T13:20:46;101139.88;;;19.09
49785;BMP280;35679;38.732;-121.358;2023-06-26T13:23:35;101140.47;;;19.11
49785;BMP280;35679;38.732;-121.358;2023-06-26T13:26:25;101139.25;;;19.01
49785;BMP280;35679;38.732;-121.358;2023-06-26T13:29:20;101142.75;;;18.95
49785;BMP280;35679;38.732;-121.358;2023-06-26T13:32:09;101147.31;;;18.81
49785;BMP280;35679;38.732;-121.358;2023-06-26T13:34:59;101154.53;;;18.81
49785;BMP280;35679;38.732;-121.358;2023-06-26T13:37:48;101154.75;;;18.79
49785;BMP280;35679;38.732;-121.358;2023-06-26T13:40:38;101158.84;;;18.82
49785;BMP280;35679;38.732;-121.358;2023-06-26T13:43:29;101165.44;;;18.73
49785;BMP280;35679;38.732;-121.358;2023-06-26T13:46:19;101152.69;;;18.75
49785;BMP280;35679;38.732;-121.358;2023-06-26T13:49:08;101158.47;;;18.65
49785;BMP280;35679;38.732;-121.358;2023-06-26T13:51:58;101159.72;;;18.50
49785;BMP280;35679;38.732;-121.358;2023-06-26T13:54:47;101167.94;;;18.55
49785;BMP280;35679;38.732;-121.358;2023-06-26T13:57:39;101173.88;;;18.57
49785;BMP280;35679;38.732;-121.358;2023-06-26T14:00:30;101161.38;;;18.51
49785;BMP280;35679;38.732;-121.358;2023-06-26T14:03:20;101172.06;;;18.51
49785;BMP280;35679;38.732;-121.358;2023-06-26T14:06:09;101174.13;;;18.49
49785;BMP280;35679;38.732;-121.358;2023-06-26T14:08:59;101169.38;;;18.44
49785;BMP280;35679;38.732;-121.358;2023-06-26T14:11:49;101173.09;;;18.31
49785;BMP280;35679;38.732;-121.358;2023-06-26T14:14:38;101166.28;;;18.41
49785;BMP280;35679;38.732;-121.358;2023-06-26T14:17:27;101164.84;;;18.39
49785;BMP280;35679;38.732;-121.358;2023-06-26T14:20:17;101168.38;;;18.33
49785;BMP280;35679;38.732;-121.358;2023-06-26T14:23:09;101168.59;;;18.38
49785;BMP280;35679;38.732;-121.358;2023-06-26T14:25:59;101178.44;;;18.37
49785;BMP280;35679;38.732;-121.358;2023-06-26T14:28:48;101182.53;;;18.40
49785;BMP280;35679;38.732;-121.358;2023-06-26T14:31:38;101182.13;;;18.30
49785;BMP280;35679;38.732;-121.358;2023-06-26T14:34:27;101187.69;;;18.35
49785;BMP280;35679;38.732;-121.358;2023-06-26T14:37:17;101186.03;;;18.27
49785;BMP280;35679;38.732;-121.358;2023-06-26T14:40:08;101187.91;;;18.27
49785;BMP280;35679;38.732;-121.358;2023-06-26T14:42:58;101187.09;;;18.33
49785;BMP280;35679;38.732;-121.358;2023-06-26T14:45:48;101203.09;;;18.39
49785;BMP280;35679;38.732;-121.358;2023-06-26T14:48:38;101201.22;;;18.85
49785;BMP280;35679;38.732;-121.358;2023-06-26T14:51:27;101201.97;;;19.11
49785;BMP280;35679;38.732;-121.358;2023-06-26T14:54:16;101202.38;;;19.21
49785;BMP280;35679;38.732;-121.358;2023-06-26T14:57:07;101198.44;;;19.30
49785;BMP280;35679;38.732;-121.358;2023-06-26T14:59:56;101201.88;;;19.37
49785;BMP280;35679;38.732;-121.358;2023-06-26T15:02:45;101192.00;;;19.44
49785;BMP280;35679;38.732;-121.358;2023-06-26T15:05:35;101191.94;;;19.50
49785;BMP280;35679;38.732;-121.358;2023-06-26T15:08:24;101200.16;;;19.55
49785;BMP280;35679;38.732;-121.358;2023-06-26T15:11:14;101200.97;;;19.62
49785;BMP280;35679;38.732;-121.358;2023-06-26T15:14:03;101205.25;;;19.70
49785;BMP280;35679;38.732;-121.358;2023-06-26T15:16:53;101198.63;;;19.72
49785;BMP280;35679;38.732;-121.358;2023-06-26T15:19:42;101203.75;;;19.80
49785;BMP280;35679;38.732;-121.358;2023-06-26T15:22:32;101199.38;;;19.85
49785;BMP280;35679;38.732;-121.358;2023-06-26T15:25:21;101205.56;;;19.92
49785;BMP280;35679;38.732;-121.358;2023-06-26T15:28:10;101203.66;;;19.99
49785;BMP280;35679;38.732;-121.358;2023-06-26T15:31:00;101201.97;;;20.05
49785;BMP280;35679;38.732;-121.358;2023-06-26T15:33:50;101200.09;;;20.12
49785;BMP280;35679;38.732;-121.358;2023-06-26T15:36:39;101204.56;;;20.18